Terminal Aerodrome Forecast
Issued by NWS Central Illinois

Home | Current Version | Previous Version | Text Only | Print | Product List | Glossary On
Versions: 1 2 3 4 5 6 7 8 9 10 11 12 13 14 15 16 17 18
000
FTUS43 KILX 172007 AAA
TAFPIA
TAF AMD
KPIA 172007Z 1720/1818 26012G18KT P6SM SCT035 SCT250
     FM172300 26008KT P6SM SCT250
     FM180300 28005KT P6SM SKC=

USA.gov is the U.S. government's official web portal to all federal, state and local government web resources and services.